Time;durP1;ratioP1;P1;durP2;ratioP2;P2;SDS_P1;SDS_P2;PMS_P1;PMS_P2;Temp;Humidity;BMP_temperature;BMP_pressure;BME280_temperature;BME280_humidity;BME280_pressure;Samples;Min_cycle;Max_cycle;Signal;HPM_P1;HPM_P2
2023/06/03 00:00:29;;;;;;;10.00;9.70;;;14.90;99.90;;;;;;5059397;28;20235;-82
2023/06/03 00:03:06;;;;;;;9.68;9.38;;;14.90;99.90;;;;;;5050878;28;20243;-83
2023/06/03 00:05:45;;;;;;;10.10;9.80;;;14.90;99.90;;;;;;5042935;28;20243;-82
2023/06/03 00:08:13;;;;;;;10.20;9.90;;;14.90;99.90;;;;;;5043232;28;20242;-82
2023/06/03 00:10:43;;;;;;;10.15;9.85;;;14.90;99.90;;;;;;5042647;28;20263;-81
2023/06/03 00:13:15;;;;;;;9.93;9.63;;;14.90;99.90;;;;;;5042635;28;20295;-81
2023/06/03 00:15:44;;;;;;;10.00;9.70;;;14.90;99.90;;;;;;5042304;28;20232;-80
2023/06/03 00:18:13;;;;;;;9.82;9.52;;;14.90;99.90;;;;;;5042629;28;20231;-81
2023/06/03 00:20:52;;;;;;;9.90;9.60;;;14.90;99.90;;;;;;5042211;28;20237;-80
2023/06/03 00:23:21;;;;;;;9.70;9.40;;;15.00;99.90;;;;;;5042504;28;20441;-81
2023/06/03 00:25:51;;;;;;;9.98;9.68;;;15.00;99.90;;;;;;5041531;28;20241;-81
2023/06/03 00:28:21;;;;;;;9.90;9.60;;;15.00;99.90;;;;;;5041938;28;20228;-80
2023/06/03 00:30:50;;;;;;;9.70;9.40;;;14.90;99.90;;;;;;5041309;28;20263;-80
2023/06/03 00:33:19;;;;;;;10.10;9.80;;;14.90;99.90;;;;;;5041183;28;20239;-81
2023/06/03 00:36:00;;;;;;;10.02;9.73;;;14.80;99.90;;;;;;5042385;28;20234;-80
2023/06/03 00:38:28;;;;;;;10.10;9.80;;;14.80;99.90;;;;;;5041486;28;20223;-81
2023/06/03 00:40:56;;;;;;;10.10;9.80;;;14.80;99.90;;;;;;5041768;28;20258;-81
2023/06/03 00:43:25;;;;;;;9.90;9.60;;;14.70;99.90;;;;;;5042214;28;20231;-80
2023/06/03 00:45:55;;;;;;;9.90;9.60;;;14.70;99.90;;;;;;5041291;28;20652;-80
2023/06/03 00:48:24;;;;;;;9.90;9.60;;;14.70;99.90;;;;;;5041077;28;20669;-80
2023/06/03 00:51:23;;;;;;;9.70;9.40;;;14.70;99.90;;;;;;5041627;28;20281;-81
2023/06/03 00:53:51;;;;;;;10.23;9.93;;;14.60;99.90;;;;;;5041707;28;20274;-81
2023/06/03 00:56:19;;;;;;;9.80;9.50;;;14.50;99.90;;;;;;5041519;28;20243;-81
2023/06/03 00:58:48;;;;;;;10.00;9.70;;;14.50;99.90;;;;;;5041625;28;20278;-81
2023/06/03 01:01:19;;;;;;;9.88;9.57;;;14.40;99.90;;;;;;5043725;28;20234;-81
2023/06/03 01:03:47;;;;;;;9.93;9.63;;;14.40;99.90;;;;;;5045476;28;20263;-81
2023/06/03 01:06:32;;;;;;;10.10;9.80;;;14.20;99.90;;;;;;5069379;28;20246;-81
2023/06/03 01:09:12;;;;;;;10.10;9.80;;;14.10;99.90;;;;;;5051639;28;20270;-81
2023/06/03 01:11:51;;;;;;;9.93;9.63;;;14.00;99.90;;;;;;5046781;28;20235;-81
2023/06/03 01:14:29;;;;;;;10.30;10.00;;;14.00;99.90;;;;;;5046218;28;20219;-81
2023/06/03 01:16:59;;;;;;;10.15;9.85;;;14.00;99.90;;;;;;5044962;28;20258;-82
2023/06/03 01:19:39;;;;;;;9.77;9.47;;;13.90;99.90;;;;;;5046520;28;20207;-81
2023/06/03 01:22:15;;;;;;;9.97;9.67;;;13.90;99.90;;;;;;5045162;28;20301;-81
2023/06/03 01:24:56;;;;;;;10.10;9.80;;;13.90;99.90;;;;;;5044866;28;20242;-81
2023/06/03 01:27:24;;;;;;;9.93;9.63;;;14.00;99.90;;;;;;5044952;28;20298;-81
2023/06/03 01:29:52;;;;;;;10.00;9.70;;;13.90;99.90;;;;;;5049500;28;20212;-81
2023/06/03 01:32:21;;;;;;;9.80;9.50;;;13.90;99.90;;;;;;5050623;28;20239;-81
2023/06/03 01:34:50;;;;;;;9.70;9.40;;;13.90;99.90;;;;;;5049536;28;20231;-80
2023/06/03 01:37:20;;;;;;;9.90;9.60;;;14.00;99.90;;;;;;5044328;28;20234;-81
2023/06/03 01:40:00;;;;;;;10.10;9.80;;;14.00;99.90;;;;;;5043649;28;20306;-81
2023/06/03 01:42:28;;;;;;;9.73;9.43;;;14.00;99.90;;;;;;5043878;28;20362;-81
2023/06/03 01:44:58;;;;;;;9.73;9.43;;;14.00;99.90;;;;;;5043908;28;21034;-81
2023/06/03 01:47:26;;;;;;;9.93;9.63;;;14.00;99.90;;;;;;5044332;28;20219;-81
2023/06/03 01:49:56;;;;;;;9.85;9.55;;;13.90;99.90;;;;;;5043759;28;20258;-82
2023/06/03 01:52:26;;;;;;;9.82;9.52;;;13.90;99.90;;;;;;5043747;28;20250;-81
2023/06/03 01:57:42;;;;;;;9.80;9.50;;;13.80;99.90;;;;;;5044169;28;20227;-82
2023/06/03 02:00:12;;;;;;;9.98;9.68;;;13.80;99.90;;;;;;5044086;28;20231;-82
2023/06/03 02:02:41;;;;;;;10.10;9.80;;;13.80;99.90;;;;;;5044766;28;20374;-80
2023/06/03 02:05:11;;;;;;;10.13;9.82;;;13.90;99.90;;;;;;5044366;28;20231;-80
2023/06/03 02:07:40;;;;;;;9.80;9.50;;;13.90;99.90;;;;;;5044196;28;20238;-80
2023/06/03 02:12:59;;;;;;;9.87;9.57;;;13.90;99.90;;;;;;5043342;28;20251;-80
2023/06/03 02:15:28;;;;;;;9.90;9.60;;;13.90;99.90;;;;;;5043891;28;20242;-81
2023/06/03 02:17:57;;;;;;;9.70;9.40;;;14.00;99.90;;;;;;5044019;28;20270;-80
2023/06/03 02:20:26;;;;;;;9.85;9.55;;;14.10;99.90;;;;;;5043600;28;20323;-80
2023/06/03 02:22:57;;;;;;;10.20;9.90;;;14.10;99.90;;;;;;5061182;28;20261;-81
2023/06/03 02:25:28;;;;;;;9.60;9.30;;;14.10;99.90;;;;;;5063529;28;20238;-80
2023/06/03 02:27:56;;;;;;;9.90;9.60;;;14.10;99.90;;;;;;5063293;28;20231;-80
2023/06/03 02:30:24;;;;;;;9.82;9.52;;;14.10;99.90;;;;;;5055266;28;20219;-80
2023/06/03 02:32:54;;;;;;;9.98;9.68;;;14.10;99.90;;;;;;5063019;28;20238;-80
2023/06/03 02:35:24;;;;;;;9.57;9.27;;;14.10;99.90;;;;;;5063772;28;20241;-80
2023/06/03 02:37:52;;;;;;;9.80;9.50;;;14.10;99.90;;;;;;5063775;28;20226;-81
2023/06/03 02:40:22;;;;;;;9.95;9.65;;;14.20;99.90;;;;;;5064877;28;20231;-80
2023/06/03 02:42:54;;;;;;;9.98;9.68;;;14.10;99.90;;;;;;5064504;28;20318;-80
2023/06/03 02:45:21;;;;;;;10.40;10.10;;;14.10;99.90;;;;;;5043450;28;20274;-80
2023/06/03 02:47:51;;;;;;;10.40;10.10;;;14.00;99.90;;;;;;5043149;28;20239;-81
2023/06/03 02:50:20;;;;;;;10.50;10.20;;;13.90;99.90;;;;;;5043421;28;20254;-81
2023/06/03 02:52:49;;;;;;;10.30;10.00;;;13.90;99.90;;;;;;5043498;28;20239;-83
2023/06/03 02:55:18;;;;;;;10.80;10.50;;;13.90;99.90;;;;;;5043308;28;20266;-80
2023/06/03 02:57:48;;;;;;;10.73;10.43;;;13.90;99.90;;;;;;5062916;28;20321;-80
2023/06/03 03:00:26;;;;;;;10.55;10.25;;;14.00;99.90;;;;;;5063043;28;20231;-80
2023/06/03 03:02:56;;;;;;;10.95;10.65;;;14.00;99.90;;;;;;5062997;28;20234;-80
2023/06/03 03:05:25;;;;;;;10.60;10.30;;;14.00;99.90;;;;;;5062571;28;20239;-81
2023/06/03 03:07:54;;;;;;;10.70;10.40;;;13.90;99.90;;;;;;5062990;28;20290;-81
2023/06/03 03:10:24;;;;;;;10.73;10.43;;;13.90;99.90;;;;;;5062753;28;20227;-81
2023/06/03 03:12:53;;;;;;;10.95;10.65;;;13.90;99.90;;;;;;5072638;28;20226;-81
2023/06/03 03:15:35;;;;;;;10.73;10.43;;;13.90;99.90;;;;;;5074507;28;20226;-81
2023/06/03 03:18:02;;;;;;;10.68;10.38;;;13.90;99.90;;;;;;5064177;28;20236;-81
2023/06/03 03:20:30;;;;;;;11.00;10.70;;;13.90;99.90;;;;;;5064929;28;20234;-81
2023/06/03 03:22:59;;;;;;;10.40;10.10;;;13.90;99.90;;;;;;5062584;28;20245;-80
2023/06/03 03:25:29;;;;;;;10.55;10.25;;;13.90;99.90;;;;;;5062822;28;20307;-81
2023/06/03 03:27:58;;;;;;;10.67;10.37;;;13.80;99.90;;;;;;5062496;28;20234;-81
2023/06/03 03:30:40;;;;;;;10.30;10.00;;;13.80;99.90;;;;;;5062395;28;20227;-81
2023/06/03 03:33:08;;;;;;;10.03;9.73;;;13.80;99.90;;;;;;5061810;28;20241;-81
2023/06/03 03:35:39;;;;;;;10.40;10.10;;;13.80;99.90;;;;;;5062360;28;20226;-81
2023/06/03 03:38:14;;;;;;;10.13;9.82;;;13.80;99.90;;;;;;5061997;28;20223;-81
2023/06/03 03:40:43;;;;;;;10.30;10.00;;;13.70;99.90;;;;;;5061733;28;20218;-81
2023/06/03 03:43:23;;;;;;;10.50;10.20;;;13.80;99.90;;;;;;5064483;28;20250;-81
2023/06/03 03:45:53;;;;;;;10.57;10.27;;;13.80;99.90;;;;;;5063708;28;20325;-82
2023/06/03 03:48:23;;;;;;;10.20;9.90;;;13.80;99.90;;;;;;5063717;28;20257;-81
2023/06/03 03:50:53;;;;;;;10.10;9.80;;;13.80;99.90;;;;;;5063521;28;20259;-81
2023/06/03 03:53:23;;;;;;;10.30;10.00;;;13.80;99.90;;;;;;5063318;28;20227;-81
2023/06/03 03:56:01;;;;;;;10.40;10.10;;;13.70;99.90;;;;;;5062946;28;20235;-81
2023/06/03 03:58:36;;;;;;;10.30;10.00;;;13.70;99.90;;;;;;5063286;28;20259;-81
2023/06/03 04:01:15;;;;;;;10.50;10.20;;;13.70;99.90;;;;;;5069166;28;20237;-81
2023/06/03 04:03:46;;;;;;;10.50;10.20;;;13.70;99.90;;;;;;5062221;28;20230;-81
2023/06/03 04:06:32;;;;;;;10.47;10.17;;;13.70;99.90;;;;;;5061785;28;20238;-81
2023/06/03 04:09:01;;;;;;;10.40;10.10;;;13.70;99.90;;;;;;5061417;28;20337;-81
2023/06/03 04:11:30;;;;;;;10.33;10.03;;;13.70;99.90;;;;;;5061217;28;20313;-81
2023/06/03 04:14:01;;;;;;;10.17;9.87;;;13.70;99.90;;;;;;5062321;28;20235;-82
2023/06/03 04:16:57;;;;;;;10.30;10.00;;;13.70;99.90;;;;;;5062751;28;20713;-81
2023/06/03 04:19:30;;;;;;;10.60;10.30;;;13.80;99.90;;;;;;5061890;28;20219;-82
2023/06/03 04:21:58;;;;;;;10.60;10.30;;;13.90;99.90;;;;;;5062106;28;20238;-81
2023/06/03 04:24:27;;;;;;;10.17;9.87;;;14.00;99.90;;;;;;5061940;28;20242;-81
2023/06/03 04:26:55;;;;;;;10.40;10.10;;;14.10;99.90;;;;;;5061726;28;20242;-81
2023/06/03 04:29:24;;;;;;;10.30;10.00;;;14.10;99.90;;;;;;5060551;28;20254;-81
2023/06/03 04:32:02;;;;;;;10.50;10.20;;;14.10;99.90;;;;;;5053984;28;20299;-82
2023/06/03 04:34:32;;;;;;;10.47;10.17;;;14.00;99.90;;;;;;5054552;28;20223;-81
2023/06/03 04:37:02;;;;;;;10.50;10.20;;;14.00;99.90;;;;;;5064672;28;20281;-81
2023/06/03 04:39:31;;;;;;;10.33;10.03;;;14.00;99.90;;;;;;5065044;28;20234;-82
2023/06/03 04:42:07;;;;;;;10.23;9.93;;;14.00;99.90;;;;;;5065676;28;20226;-81
2023/06/03 04:44:39;;;;;;;10.17;9.87;;;14.00;99.90;;;;;;5066340;28;20234;-82
2023/06/03 04:47:18;;;;;;;10.10;9.80;;;14.00;99.90;;;;;;5066434;28;20242;-81
2023/06/03 04:49:48;;;;;;;10.68;10.38;;;14.00;99.90;;;;;;5066069;28;20265;-82
2023/06/03 04:52:15;;;;;;;10.38;10.07;;;14.00;99.90;;;;;;5065839;28;20234;-82
2023/06/03 04:54:45;;;;;;;10.27;9.97;;;14.00;99.90;;;;;;5065552;28;20226;-82
2023/06/03 04:57:14;;;;;;;10.27;9.97;;;14.00;99.90;;;;;;5065457;28;20230;-81
2023/06/03 04:59:44;;;;;;;10.33;10.03;;;13.90;99.90;;;;;;5064262;28;20239;-82
2023/06/03 05:02:16;;;;;;;10.20;9.90;;;13.80;99.90;;;;;;5066136;28;20231;-82
2023/06/03 05:04:44;;;;;;;10.17;9.87;;;13.80;99.90;;;;;;5071855;28;20239;-82
2023/06/03 05:07:13;;;;;;;10.07;9.77;;;13.80;99.90;;;;;;5076259;28;20234;-82
2023/06/03 05:09:41;;;;;;;9.90;9.60;;;13.80;99.90;;;;;;5076977;28;20223;-82
2023/06/03 05:12:11;;;;;;;9.97;9.67;;;13.80;99.90;;;;;;5075481;28;20219;-82
2023/06/03 05:14:40;;;;;;;9.77;9.48;;;13.90;99.90;;;;;;5078877;28;20230;-82
2023/06/03 05:17:09;;;;;;;9.80;9.50;;;14.00;99.90;;;;;;5081008;28;20218;-82
2023/06/03 05:19:50;;;;;;;9.80;9.50;;;14.10;99.90;;;;;;5079944;28;20257;-82
2023/06/03 05:22:18;;;;;;;9.70;9.40;;;14.10;99.90;;;;;;5080141;28;20229;-82
2023/06/03 05:24:47;;;;;;;9.90;9.60;;;14.20;99.90;;;;;;5080889;28;20231;-82
2023/06/03 05:27:16;;;;;;;9.90;9.60;;;14.30;99.90;;;;;;5080983;28;20229;-82
2023/06/03 05:29:47;;;;;;;9.77;9.48;;;14.30;99.90;;;;;;5080762;28;20218;-82
2023/06/03 05:32:17;;;;;;;9.90;9.60;;;14.40;99.90;;;;;;5081807;28;20211;-82
2023/06/03 05:34:47;;;;;;;10.07;9.77;;;14.50;99.90;;;;;;5082703;28;20363;-82
2023/06/03 05:37:25;;;;;;;9.73;9.43;;;14.50;99.90;;;;;;5082045;28;20211;-82
2023/06/03 05:39:55;;;;;;;9.90;9.60;;;14.60;99.90;;;;;;5081312;28;20224;-83
2023/06/03 05:42:32;;;;;;;9.75;9.45;;;14.80;99.90;;;;;;5240138;22;20228;-83
2023/06/03 05:45:10;;;;;;;9.88;9.57;;;15.00;99.90;;;;;;5105677;27;20225;-82
2023/06/03 05:47:41;;;;;;;10.00;9.70;;;15.20;99.90;;;;;;5107845;28;20267;-83
2023/06/03 05:50:27;;;;;;;9.88;9.57;;;15.40;99.90;;;;;;5109471;28;20260;-82
2023/06/03 05:52:58;;;;;;;9.82;9.52;;;15.40;99.90;;;;;;5094015;28;20234;-83
2023/06/03 05:55:35;;;;;;;10.10;9.80;;;15.50;99.90;;;;;;5087606;28;20240;-83
2023/06/03 05:58:36;;;;;;;10.23;9.93;;;15.60;99.90;;;;;;5087006;28;20287;-83
2023/06/03 06:04:47;;;;;;;10.18;9.88;;;15.70;99.90;;;;;;4973365;28;20254;-85
2023/06/03 06:10:49;;;;;;;10.25;9.95;;;15.70;99.90;;;;;;5084070;28;20225;-83
2023/06/03 06:13:37;;;;;;;10.40;10.10;;;15.70;99.90;;;;;;5090625;28;20230;-84
2023/06/03 06:16:24;;;;;;;10.32;10.02;;;15.90;99.90;;;;;;5086236;28;20226;-83
2023/06/03 06:19:10;;;;;;;10.40;10.10;;;16.00;99.90;;;;;;5085767;28;20230;-83
2023/06/03 06:21:39;;;;;;;10.30;10.00;;;16.20;99.90;;;;;;5085485;28;20327;-84
2023/06/03 06:24:18;;;;;;;10.40;10.10;;;16.30;99.90;;;;;;5085544;28;20284;-84
2023/06/03 06:26:49;;;;;;;10.70;10.40;;;16.30;99.90;;;;;;5084101;28;20441;-82
2023/06/03 06:34:07;;;;;;;10.40;10.10;;;16.70;99.90;;;;;;5009222;28;20228;-85
2023/06/03 06:58:48;;;;;;;10.55;10.25;;;17.70;99.90;;;;;;5001385;28;20224;-88
2023/06/03 07:04:54;;;;;;;10.90;10.60;;;18.00;99.90;;;;;;5062224;28;20219;-89
2023/06/03 07:26:06;;;;;;;10.80;10.50;;;18.50;99.90;;;;;;4968372;28;20228;-90
2023/06/03 07:28:37;;;;;;;10.90;10.60;;;18.40;99.90;;;;;;5022776;28;20259;-84
2023/06/03 07:31:15;;;;;;;10.55;10.25;;;18.40;99.90;;;;;;5029960;28;20239;-85
2023/06/03 07:34:02;;;;;;;10.80;10.50;;;18.60;99.90;;;;;;5064582;28;20237;-85
2023/06/03 07:36:32;;;;;;;10.80;10.50;;;18.70;99.90;;;;;;5083310;28;20222;-85
2023/06/03 07:41:57;;;;;;;10.70;10.40;;;18.90;99.90;;;;;;5082839;28;20289;-84
2023/06/03 07:44:44;;;;;;;10.73;10.43;;;19.00;99.90;;;;;;5085730;28;20236;-84
2023/06/03 07:50:08;;;;;;;10.50;10.20;;;19.20;99.90;;;;;;5086893;28;20229;-85
2023/06/03 07:52:38;;;;;;;10.65;10.35;;;19.30;99.90;;;;;;5077400;28;20231;-84
2023/06/03 07:55:11;;;;;;;10.27;9.98;;;19.50;99.90;;;;;;5066988;28;20242;-84
2023/06/03 07:57:47;;;;;;;10.32;10.02;;;19.60;99.90;;;;;;5065323;28;20293;-84
2023/06/03 08:00:24;;;;;;;10.30;10.00;;;19.50;99.90;;;;;;5064481;28;20230;-85
2023/06/03 08:02:55;;;;;;;9.93;9.63;;;19.60;99.90;;;;;;5063670;28;20241;-85
2023/06/03 08:09:32;;;;;;;9.80;9.50;;;19.80;99.90;;;;;;4992175;28;20227;-88
2023/06/03 08:15:35;;;;;;;9.88;9.57;;;19.80;99.90;;;;;;5069632;28;20254;-85
2023/06/03 08:19:06;;;;;;;;;;;;;;;;;;;;;
2023/06/03 08:21:44;;;;;;;10.18;9.88;;;20.10;99.90;;;;;;5067704;28;20249;-87
2023/06/03 08:50:06;;;;;;;10.25;9.95;;;21.00;99.90;;;;;;5010829;28;20251;-84
2023/06/03 08:52:37;;;;;;;10.20;9.90;;;21.20;99.90;;;;;;5054210;28;20226;-82
2023/06/03 08:55:07;;;;;;;10.30;10.00;;;21.50;99.90;;;;;;5113239;28;20217;-83
2023/06/03 08:57:39;;;;;;;10.02;9.73;;;21.60;99.90;;;;;;5113930;28;20233;-83
2023/06/03 09:00:13;;;;;;;9.90;9.60;;;21.80;99.90;;;;;;5114431;28;20226;-83
2023/06/03 09:02:41;;;;;;;9.82;9.52;;;22.00;99.90;;;;;;5117372;28;20256;-83
2023/06/03 09:05:21;;;;;;;9.95;9.65;;;22.10;99.90;;;;;;5115950;28;20245;-83
2023/06/03 09:07:54;;;;;;;10.00;9.70;;;22.40;99.90;;;;;;5112899;28;20338;-83
2023/06/03 09:10:22;;;;;;;9.85;9.55;;;22.80;99.90;;;;;;5115939;28;20235;-87
2023/06/03 09:12:56;;;;;;;9.77;9.48;;;22.80;99.90;;;;;;5113302;28;20225;-82
2023/06/03 09:15:26;;;;;;;9.60;9.30;;;22.40;99.90;;;;;;5111828;28;20210;-83
2023/06/03 09:17:56;;;;;;;9.95;9.65;;;22.40;99.90;;;;;;5114687;28;20310;-81
2023/06/03 09:20:27;;;;;;;10.10;9.80;;;22.50;99.90;;;;;;5107348;28;20332;-81
2023/06/03 09:22:57;;;;;;;10.13;9.82;;;22.70;99.90;;;;;;5105370;28;20263;-81
2023/06/03 09:25:25;;;;;;;9.90;9.60;;;23.00;99.90;;;;;;5105991;28;20236;-81
2023/06/03 09:27:55;;;;;;;9.88;9.57;;;23.30;99.90;;;;;;5087942;28;20326;-82
2023/06/03 09:30:31;;;;;;;9.75;9.45;;;23.40;99.90;;;;;;5086237;28;20241;-82
2023/06/03 09:33:01;;;;;;;9.75;9.45;;;23.40;99.90;;;;;;5102262;28;20383;-83
2023/06/03 09:35:40;;;;;;;9.80;9.50;;;23.60;99.90;;;;;;5107869;28;20225;-83
2023/06/03 09:38:09;;;;;;;9.93;9.63;;;23.60;99.90;;;;;;5110422;28;20221;-87
2023/06/03 09:40:40;;;;;;;9.80;9.50;;;23.40;99.90;;;;;;5110370;28;20221;-86
2023/06/03 09:45:55;;;;;;;10.18;9.88;;;23.90;99.90;;;;;;5105960;28;20229;-87
2023/06/03 09:48:26;;;;;;;10.25;9.95;;;24.00;99.90;;;;;;5107158;28;20229;-87
2023/06/03 09:53:41;;;;;;;10.27;9.98;;;24.60;99.90;;;;;;5104629;28;20234;-87
2023/06/03 09:59:16;;;;;;;9.95;9.65;;;24.90;99.90;;;;;;5109117;28;20249;-84
2023/06/03 10:01:47;;;;;;;9.85;9.55;;;24.40;99.90;;;;;;5107081;28;20247;-84
2023/06/03 10:04:29;;;;;;;9.90;9.60;;;23.90;99.90;;;;;;5109316;28;20242;-85
2023/06/03 10:07:21;;;;;;;10.43;10.13;;;23.60;99.90;;;;;;5113212;27;20281;-84
2023/06/03 10:09:49;;;;;;;9.77;9.48;;;23.20;99.90;;;;;;5108211;28;20269;-82
2023/06/03 10:19:10;;;;;;;9.90;9.60;;;23.30;99.90;;;;;;5041450;28;20214;-84
2023/06/03 10:22:54;;;;;;;10.00;9.70;;;23.80;99.90;;;;;;5080052;28;20307;-84
2023/06/03 10:26:38;;;;;;;9.77;9.48;;;24.10;99.90;;;;;;5085937;28;20222;-85
2023/06/03 10:29:45;;;;;;;9.95;9.65;;;24.20;99.90;;;;;;5080549;28;20226;-83
2023/06/03 10:32:16;;;;;;;9.60;9.30;;;24.00;99.90;;;;;;5084975;28;20712;-81
2023/06/03 10:34:47;;;;;;;10.05;9.75;;;24.00;99.90;;;;;;5085361;28;20234;-83
2023/06/03 10:37:16;;;;;;;10.05;9.75;;;24.20;99.90;;;;;;5093606;28;20230;-83
2023/06/03 10:39:47;;;;;;;15.27;14.02;;;24.40;99.90;;;;;;5090964;28;20237;-83
2023/06/03 10:42:15;;;;;;;10.60;10.30;;;24.70;99.90;;;;;;5089795;28;20222;-82
2023/06/03 10:44:44;;;;;;;10.23;9.93;;;25.10;99.90;;;;;;5088045;28;20345;-83
2023/06/03 10:47:24;;;;;;;10.20;9.90;;;25.60;99.90;;;;;;5086628;28;20241;-82
2023/06/03 10:49:58;;;;;;;9.95;9.65;;;25.30;99.90;;;;;;5086008;28;20300;-83
2023/06/03 10:52:55;;;;;;;9.80;9.50;;;24.80;99.90;;;;;;5086070;28;20237;-82
2023/06/03 10:55:34;;;;;;;9.93;9.63;;;24.50;99.90;;;;;;5106485;28;20261;-83
2023/06/03 10:58:11;;;;;;;10.00;9.70;;;24.30;99.90;;;;;;5105827;28;20232;-83
2023/06/03 11:00:59;;;;;;;10.43;10.13;;;24.10;99.90;;;;;;5105652;28;20271;-83
2023/06/03 11:03:28;;;;;;;10.50;10.20;;;24.30;99.90;;;;;;5106015;28;20229;-83
2023/06/03 11:06:41;;;;;;;10.20;9.90;;;24.70;99.90;;;;;;5105922;28;20718;-83
2023/06/03 11:09:15;;;;;;;10.30;10.00;;;25.00;99.90;;;;;;5086506;28;20257;-84
2023/06/03 11:12:05;;;;;;;10.18;9.88;;;25.40;99.90;;;;;;5085785;28;20230;-83
2023/06/03 11:14:55;;;;;;;10.02;9.73;;;25.80;99.90;;;;;;5093938;28;20229;-83
2023/06/03 11:17:29;;;;;;;9.90;9.60;;;25.70;99.90;;;;;;5087041;28;20254;-84
2023/06/03 11:20:01;;;;;;;9.80;9.50;;;25.60;99.90;;;;;;5087510;28;20268;-83
2023/06/03 11:22:47;;;;;;;9.90;9.60;;;25.90;99.90;;;;;;5086448;28;20261;-84
2023/06/03 11:25:33;;;;;;;10.10;9.80;;;25.90;99.90;;;;;;5086433;28;20306;-83
2023/06/03 11:28:38;;;;;;;9.82;9.52;;;25.70;99.90;;;;;;5084819;28;20262;-83
2023/06/03 11:31:09;;;;;;;9.73;9.43;;;25.30;99.90;;;;;;5093495;28;20230;-83
2023/06/03 11:33:43;;;;;;;9.73;9.43;;;25.00;99.90;;;;;;5093190;28;20233;-83
2023/06/03 11:37:03;;;;;;;9.80;9.50;;;24.70;99.90;;;;;;5086747;28;20236;-83
2023/06/03 11:40:14;;;;;;;9.90;9.60;;;24.40;99.90;;;;;;5085791;28;20308;-84
2023/06/03 11:43:09;;;;;;;9.68;9.38;;;24.10;99.90;;;;;;5168261;22;20285;-86
2023/06/03 11:45:39;;;;;;;9.80;9.50;;;24.20;99.90;;;;;;5073117;28;20252;-86
2023/06/03 11:48:10;;;;;;;10.02;9.73;;;24.00;99.90;;;;;;5080575;28;20233;-87
2023/06/03 11:50:57;;;;;;;9.80;9.50;;;24.00;99.90;;;;;;5085306;28;20240;-85
2023/06/03 11:53:34;;;;;;;10.00;9.70;;;24.10;99.90;;;;;;5074804;28;20327;-86
2023/06/03 11:59:35;;;;;;;9.80;9.50;;;24.00;99.90;;;;;;5060314;28;20755;-87
2023/06/03 12:05:50;;;;;;;9.93;9.63;;;23.90;99.90;;;;;;5032503;28;20227;-86
2023/06/03 12:11:28;;;;;;;9.90;9.60;;;25.20;99.90;;;;;;5060651;28;20218;-86
2023/06/03 12:14:14;;;;;;;9.90;9.60;;;25.70;99.90;;;;;;5060698;28;20239;-87
2023/06/03 12:16:55;;;;;;;9.70;9.40;;;25.70;99.90;;;;;;5062619;28;20250;-86
2023/06/03 12:19:33;;;;;;;9.40;9.10;;;26.10;99.90;;;;;;5079511;28;20207;-84
2023/06/03 12:22:07;;;;;;;9.95;9.65;;;26.60;99.90;;;;;;5079471;28;20219;-85
2023/06/03 12:25:20;;;;;;;9.70;9.40;;;27.20;99.90;;;;;;5064561;28;20235;-86
2023/06/03 12:28:21;;;;;;;9.80;9.50;;;27.60;99.90;;;;;;5061486;28;20245;-86
2023/06/03 12:30:50;;;;;;;9.40;9.10;;;28.20;99.90;;;;;;5061609;28;20229;-88
2023/06/03 12:36:55;;;;;;;9.98;9.68;;;27.50;99.90;;;;;;5055962;28;20218;-85
2023/06/03 12:39:47;;;;;;;9.65;9.35;;;26.80;99.90;;;;;;5060702;28;20237;-85
2023/06/03 12:42:27;;;;;;;9.70;9.40;;;26.30;99.90;;;;;;5048991;28;20338;-86
2023/06/03 12:51:47;;;;;;;10.10;9.80;;;26.80;99.90;;;;;;4987327;28;20232;-86
2023/06/03 12:54:18;;;;;;;9.70;9.40;;;27.50;99.90;;;;;;5040789;28;20267;-86
2023/06/03 12:57:39;;;;;;;9.95;9.65;;;27.70;99.90;;;;;;5041607;28;20266;-87
2023/06/03 13:03:58;;;;;;;;;;;;;;;;;;;;;
2023/06/03 13:06:40;;;;;;;10.10;9.80;;;28.80;99.90;;;;;;5062168;28;20234;-85
2023/06/03 13:09:42;;;;;;;10.20;9.90;;;29.00;99.90;;;;;;5061781;28;20214;-85
2023/06/03 13:12:21;;;;;;;10.13;9.82;;;29.50;99.90;;;;;;5013792;28;20223;-86
2023/06/03 13:21:29;;;;;;;10.38;10.07;;;29.50;99.90;;;;;;5031215;28;20220;-86
2023/06/03 13:30:37;;;;;;;9.90;9.60;;;27.00;99.90;;;;;;5043173;28;20227;-84
2023/06/03 13:33:05;;;;;;;9.90;9.60;;;26.30;99.90;;;;;;5062938;28;20262;-86
2023/06/03 13:35:33;;;;;;;10.00;9.70;;;26.10;99.90;;;;;;5063156;28;20259;-85
2023/06/03 13:38:11;;;;;;;9.88;9.57;;;26.30;99.90;;;;;;5062671;28;20237;-86
2023/06/03 13:40:41;;;;;;;9.95;9.65;;;26.70;99.90;;;;;;5063086;28;20234;-86
2023/06/03 13:43:10;;;;;;;10.27;9.98;;;27.20;99.90;;;;;;5062462;28;20238;-86
2023/06/03 13:45:40;;;;;;;10.13;9.82;;;27.00;99.90;;;;;;5062051;28;20227;-86
2023/06/03 13:48:09;;;;;;;9.82;9.52;;;26.90;99.90;;;;;;5063441;28;20285;-85
2023/06/03 13:50:39;;;;;;;10.10;9.80;;;26.80;99.90;;;;;;5064514;28;20293;-85
2023/06/03 13:53:18;;;;;;;9.88;9.57;;;27.10;99.90;;;;;;5067430;28;20270;-85
2023/06/03 13:55:48;;;;;;;9.60;9.30;;;27.40;99.90;;;;;;5066966;28;20234;-87
2023/06/03 13:58:16;;;;;;;9.43;9.13;;;27.90;99.90;;;;;;5064923;28;20238;-85
2023/06/03 14:00:45;;;;;;;10.10;9.80;;;28.50;99.90;;;;;;5062453;28;20254;-86
2023/06/03 14:03:15;;;;;;;9.77;9.48;;;29.20;99.90;;;;;;5063274;28;20230;-85
2023/06/03 14:05:46;;;;;;;10.10;9.80;;;29.60;99.90;;;;;;5056339;28;20261;-86
2023/06/03 14:08:19;;;;;;;9.98;9.68;;;29.60;99.90;;;;;;5072117;28;20262;-85
2023/06/03 14:10:53;;;;;;;10.38;10.07;;;29.10;99.90;;;;;;5069557;28;20223;-85
2023/06/03 14:13:25;;;;;;;10.50;10.20;;;28.80;99.90;;;;;;5081653;27;20233;-83
2023/06/03 14:15:52;;;;;;;11.00;10.70;;;28.40;99.90;;;;;;5101698;27;20220;-83
2023/06/03 14:18:22;;;;;;;11.00;10.70;;;28.20;99.90;;;;;;5078804;28;20220;-83
2023/06/03 14:20:53;;;;;;;10.60;10.30;;;28.50;99.90;;;;;;5052854;28;20239;-87
2023/06/03 14:23:25;;;;;;;10.70;10.40;;;28.90;99.90;;;;;;5055152;28;20238;-85
2023/06/03 14:25:55;;;;;;;10.63;10.32;;;29.30;99.90;;;;;;5045571;28;20246;-86
2023/06/03 14:31:07;;;;;;;10.43;10.13;;;30.00;99.90;;;;;;5041621;28;20223;-87
2023/06/03 14:33:37;;;;;;;10.40;10.10;;;30.00;99.90;;;;;;5043851;28;20242;-86
2023/06/03 14:36:05;;;;;;;10.52;10.23;;;29.90;99.90;;;;;;5044235;28;20242;-86
2023/06/03 14:38:47;;;;;;;10.30;10.00;;;29.90;99.90;;;;;;5042594;28;20268;-85
2023/06/03 14:41:15;;;;;;;10.57;10.27;;;30.10;99.90;;;;;;5042559;28;20235;-86
2023/06/03 14:43:43;;;;;;;10.43;10.13;;;30.40;99.90;;;;;;5042103;28;20307;-86
2023/06/03 14:46:12;;;;;;;10.13;9.82;;;30.40;99.90;;;;;;5042885;28;20232;-87
2023/06/03 14:48:42;;;;;;;10.20;9.90;;;30.20;99.90;;;;;;5043815;28;20250;-86
2023/06/03 14:51:11;;;;;;;10.40;10.10;;;29.80;99.90;;;;;;5042903;28;20258;-86
2023/06/03 14:53:49;;;;;;;10.40;10.10;;;29.20;99.90;;;;;;5040865;28;20250;-87
2023/06/03 14:56:19;;;;;;;10.25;9.95;;;28.70;99.90;;;;;;5046881;28;20290;-86
2023/06/03 14:58:51;;;;;;;10.23;9.93;;;28.70;99.90;;;;;;5043446;28;21140;-86
2023/06/03 15:01:19;;;;;;;10.45;10.15;;;28.70;99.90;;;;;;5047414;28;20220;-85
2023/06/03 15:03:47;;;;;;;10.40;10.10;;;28.20;99.90;;;;;;5058266;28;20219;-86
2023/06/03 15:06:17;;;;;;;10.35;10.05;;;28.20;99.90;;;;;;5059170;28;20219;-85
2023/06/03 15:08:57;;;;;;;10.10;9.80;;;28.60;99.90;;;;;;5047675;28;20352;-87
2023/06/03 15:11:27;;;;;;;10.30;10.00;;;29.10;99.90;;;;;;5042886;28;20241;-87
2023/06/03 15:14:02;;;;;;;10.30;10.00;;;29.30;99.90;;;;;;5041777;28;20238;-87
2023/06/03 15:16:32;;;;;;;10.20;9.90;;;29.60;99.90;;;;;;5041675;28;20271;-84
2023/06/03 15:19:01;;;;;;;10.02;9.73;;;29.70;99.90;;;;;;5040938;28;20266;-87
2023/06/03 15:21:31;;;;;;;9.90;9.60;;;29.70;99.90;;;;;;5043144;28;20242;-87
2023/06/03 15:24:03;;;;;;;9.77;9.48;;;30.00;99.90;;;;;;5041633;28;20303;-86
2023/06/03 15:27:09;;;;;;;10.13;9.82;;;30.20;99.90;;;;;;5041726;28;20232;-83
2023/06/03 15:29:43;;;;;;;10.10;9.80;;;30.30;99.90;;;;;;5042819;28;20235;-80
2023/06/03 15:48:20;;;;;;;10.68;10.38;;;29.10;99.90;;;;;;5017212;28;20411;-83
2023/06/03 17:00:25;;;;;;;10.18;9.88;;;29.10;99.90;;;;;;5039125;28;20228;-86
2023/06/03 18:32:49;;;;;;;10.10;9.80;;;24.50;99.90;;;;;;5056434;28;20247;-84
2023/06/03 18:35:52;;;;;;;10.25;9.95;;;24.20;99.90;;;;;;5044762;28;20238;-84
2023/06/03 18:42:12;;;;;;;10.40;10.10;;;23.50;99.90;;;;;;5034672;28;20234;-86
2023/06/03 18:45:49;;;;;;;;;;;;;;;;;;;;;
2023/06/03 20:32:46;;;;;;;9.80;9.50;;;18.50;99.90;;;;;;5080039;26;20245;-90
2023/06/03 20:36:25;;;;;;;;;;;;;;;;;;;;;
2023/06/03 22:33:43;;;;;;;10.20;9.90;;;15.90;99.90;;;;;;5522214;22;20208;-89
2023/06/03 22:36:13;;;;;;;10.23;9.93;;;15.90;99.90;;;;;;5104634;28;20299;-87
2023/06/03 22:38:49;;;;;;;10.20;9.90;;;15.90;99.90;;;;;;5107891;28;20226;-88